This is the latest recevied weather packets stored in our database for station/object EA2CW-13. If no packets are shown the sender has not sent any weather packets the latest 10 day(s).
| Time | Temp. | Humidity | Pressure | Rain* | Wind** | Luminosity | Snow |
|---|---|---|---|---|---|---|---|
| 1777633048 | 23.89° C | 58% | 1055 hPa | - | - | 43 W/m² | - |
| 1777632112 | 22.78° C | 60% | 1055.2 hPa | - | - | 23 W/m² | - |
| 1777631176 | 22.22° C | 62% | 1055.3 hPa | - | - | 20 W/m² | - |
| 1777630240 | 21.67° C | 63% | 1055.5 hPa | - | - | 20 W/m² | - |
| 1777629304 | 21.67° C | 65% | 1055.7 hPa | - | - | 20 W/m² | - |
| 1777628368 | 21.11° C | 66% | 1055.8 hPa | - | - | 19 W/m² | - |
| 1777627432 | 21.11° C | 66% | 1056 hPa | - | - | 20 W/m² | - |
| 1777626496 | 20.56° C | 67% | 1056.2 hPa | - | - | 21 W/m² | - |
| 1777625560 | 20.56° C | 69% | 1056.3 hPa | - | - | 20 W/m² | - |
| 1777624624 | 20.56° C | 69% | 1056.3 hPa | - | - | 21 W/m² | - |
| 1777623688 | 20° C | 70% | 1056.5 hPa | - | - | 25 W/m² | - |
| 1777622752 | 20.56° C | 71% | 1056.5 hPa | - | - | 35 W/m² | - |
| 1777621816 | 20° C | 73% | 1056.6 hPa | - | - | 30 W/m² | - |
| 1777620880 | 19.44° C | 75% | 1056.5 hPa | - | - | 27 W/m² | - |
| 1777619944 | 19.44° C | 77% | 1056.5 hPa | - | - | 26 W/m² | - |
| 1777619008 | 18.89° C | 78% | 1056.6 hPa | - | - | 24 W/m² | - |
| 1777618072 | 18.89° C | 79% | 1056.5 hPa | - | - | 22 W/m² | - |
| 1777617136 | 18.33° C | 80% | 1056.4 hPa | - | - | 14 W/m² | - |
| 1777616200 | 17.78° C | 81% | 1056.4 hPa | - | - | 9 W/m² | - |
| 1777615264 | 17.78° C | 81% | 1056.5 hPa | - | - | 6 W/m² | - |
| 1777614328 | 17.78° C | 82% | 1056.4 hPa | - | - | 3 W/m² | - |
| 1777613392 | 17.22° C | 82% | 1056.4 hPa | - | - | 2 W/m² | - |
| 1777612456 | 17.22° C | 82% | 1056.2 hPa | - | - | 0 W/m² | - |
| 1777611520 | 17.22° C | 82% | 1056.2 hPa | - | - | 0 W/m² | - |
| 1777610584 | 17.22° C | 82% | 1056.2 hPa | - | - | 0 W/m² | - |
* Rain since midnight (hover to see other rain measurements)
** Current wind speed in m/s (hover to see current wind gust speed)